sensor_id;sensor_type;location;lat;lon;timestamp;pressure;altitude;pressure_sealevel;temperature;humidity
4326;BME280;58429;49.826;10.880;2023-03-19T00:00:39;98345;;;9.13;72.53
4326;BME280;58429;49.826;10.880;2023-03-19T00:01:39;98343;;;9.11;72.64
4326;BME280;58429;49.826;10.880;2023-03-19T00:02:39;98344;;;9.12;72.66
4326;BME280;58429;49.826;10.880;2023-03-19T00:03:39;98342;;;9.08;72.69
4326;BME280;58429;49.826;10.880;2023-03-19T00:04:40;98336;;;9.11;72.57
4326;BME280;58429;49.826;10.880;2023-03-19T00:05:39;98342;;;9.06;72.53
4326;BME280;58429;49.826;10.880;2023-03-19T00:06:39;98342;;;9;72.76
4326;BME280;58429;49.826;10.880;2023-03-19T00:07:39;98337;;;9;73.13
4326;BME280;58429;49.826;10.880;2023-03-19T00:08:39;98347;;;9;73.18
4326;BME280;58429;49.826;10.880;2023-03-19T00:09:39;98344;;;8.98;72.88
4326;BME280;58429;49.826;10.880;2023-03-19T00:10:39;98341;;;8.94;72.8
4326;BME280;58429;49.826;10.880;2023-03-19T00:11:39;98341;;;8.98;73.05
4326;BME280;58429;49.826;10.880;2023-03-19T00:12:39;98342;;;8.93;73.03
4326;BME280;58429;49.826;10.880;2023-03-19T00:13:39;98345;;;8.91;72.91
4326;BME280;58429;49.826;10.880;2023-03-19T00:14:39;98349;;;8.92;72.95
4326;BME280;58429;49.826;10.880;2023-03-19T00:15:39;98348;;;8.89;73.25
4326;BME280;58429;49.826;10.880;2023-03-19T00:16:39;98348;;;8.88;73.15
4326;BME280;58429;49.826;10.880;2023-03-19T00:17:39;98346;;;8.86;73.42
4326;BME280;58429;49.826;10.880;2023-03-19T00:18:39;98348;;;8.88;73.57
4326;BME280;58429;49.826;10.880;2023-03-19T00:19:40;98348;;;8.85;73.58
4326;BME280;58429;49.826;10.880;2023-03-19T00:20:40;98344;;;8.84;73.52
4326;BME280;58429;49.826;10.880;2023-03-19T00:21:39;98336;;;8.85;73.48
4326;BME280;58429;49.826;10.880;2023-03-19T00:22:39;98338;;;8.82;73.57
4326;BME280;58429;49.826;10.880;2023-03-19T00:23:39;98344;;;8.82;73.49
4326;BME280;58429;49.826;10.880;2023-03-19T00:24:40;98347;;;8.8;73.38
4326;BME280;58429;49.826;10.880;2023-03-19T00:25:40;98349;;;8.82;73.31
4326;BME280;58429;49.826;10.880;2023-03-19T00:26:39;98346;;;8.83;73.31
4326;BME280;58429;49.826;10.880;2023-03-19T00:27:39;98344;;;8.8;73.41
4326;BME280;58429;49.826;10.880;2023-03-19T00:28:40;98346;;;8.8;73.44
4326;BME280;58429;49.826;10.880;2023-03-19T00:29:40;98343;;;8.8;73.51
4326;BME280;58429;49.826;10.880;2023-03-19T00:30:39;98340;;;8.78;73.45
4326;BME280;58429;49.826;10.880;2023-03-19T00:31:40;98338;;;8.78;73.44
4326;BME280;58429;49.826;10.880;2023-03-19T00:32:40;98339;;;8.75;73.51
4326;BME280;58429;49.826;10.880;2023-03-19T00:33:40;98344;;;8.72;73.52
4326;BME280;58429;49.826;10.880;2023-03-19T00:34:40;98346;;;8.7;73.48
4326;BME280;58429;49.826;10.880;2023-03-19T00:35:40;98340;;;8.69;73.43
4326;BME280;58429;49.826;10.880;2023-03-19T00:36:40;98344;;;8.68;73.37
4326;BME280;58429;49.826;10.880;2023-03-19T00:37:40;98342;;;8.66;73.37
4326;BME280;58429;49.826;10.880;2023-03-19T00:38:40;98347;;;8.63;73.52
4326;BME280;58429;49.826;10.880;2023-03-19T00:39:39;98344;;;8.6;73.53
4326;BME280;58429;49.826;10.880;2023-03-19T00:40:40;98345;;;8.58;73.43
4326;BME280;58429;49.826;10.880;2023-03-19T00:41:40;98345;;;8.57;73.32
4326;BME280;58429;49.826;10.880;2023-03-19T00:42:40;98343;;;8.56;73.38
4326;BME280;58429;49.826;10.880;2023-03-19T00:43:40;98343;;;8.54;73.56
4326;BME280;58429;49.826;10.880;2023-03-19T00:44:40;98351;;;8.53;73.77
4326;BME280;58429;49.826;10.880;2023-03-19T00:45:40;98345;;;8.51;73.93
4326;BME280;58429;49.826;10.880;2023-03-19T00:46:40;98348;;;8.5;74.14
4326;BME280;58429;49.826;10.880;2023-03-19T00:47:40;98350;;;8.51;74.39
4326;BME280;58429;49.826;10.880;2023-03-19T00:48:40;98352;;;8.48;74.41
4326;BME280;58429;49.826;10.880;2023-03-19T00:49:40;98349;;;8.46;74.42
4326;BME280;58429;49.826;10.880;2023-03-19T00:50:40;98355;;;8.42;74.52
4326;BME280;58429;49.826;10.880;2023-03-19T00:51:40;98348;;;8.36;74.75
4326;BME280;58429;49.826;10.880;2023-03-19T00:52:40;98346;;;8.37;74.77
4326;BME280;58429;49.826;10.880;2023-03-19T00:53:40;98352;;;8.34;74.83
4326;BME280;58429;49.826;10.880;2023-03-19T00:54:40;98364;;;8.31;75.25
4326;BME280;58429;49.826;10.880;2023-03-19T00:55:40;98361;;;8.27;75.31
4326;BME280;58429;49.826;10.880;2023-03-19T00:56:40;98360;;;8.25;75.29
4326;BME280;58429;49.826;10.880;2023-03-19T00:57:40;98356;;;8.25;75.16
4326;BME280;58429;49.826;10.880;2023-03-19T00:58:40;98354;;;8.23;75.13
4326;BME280;58429;49.826;10.880;2023-03-19T00:59:40;98355;;;8.22;75.21
4326;BME280;58429;49.826;10.880;2023-03-19T01:00:40;98356;;;8.16;75.31
4326;BME280;58429;49.826;10.880;2023-03-19T01:01:40;98357;;;8.15;75.19
4326;BME280;58429;49.826;10.880;2023-03-19T01:02:40;98353;;;8.1;75.16
4326;BME280;58429;49.826;10.880;2023-03-19T01:03:40;98352;;;8.1;75.03
4326;BME280;58429;49.826;10.880;2023-03-19T01:04:40;98346;;;8.13;75.05
4326;BME280;58429;49.826;10.880;2023-03-19T01:05:40;98341;;;8.09;75.05
4326;BME280;58429;49.826;10.880;2023-03-19T01:06:40;98339;;;8.07;74.93
4326;BME280;58429;49.826;10.880;2023-03-19T01:07:40;98346;;;8.09;74.84
4326;BME280;58429;49.826;10.880;2023-03-19T01:08:40;98347;;;8.05;74.72
4326;BME280;58429;49.826;10.880;2023-03-19T01:09:40;98344;;;8.08;74.85
4326;BME280;58429;49.826;10.880;2023-03-19T01:10:40;98351;;;8.05;75.08
4326;BME280;58429;49.826;10.880;2023-03-19T01:11:40;98349;;;8.07;75.13
4326;BME280;58429;49.826;10.880;2023-03-19T01:12:40;98340;;;8.07;75.05
4326;BME280;58429;49.826;10.880;2023-03-19T01:13:40;98352;;;8.05;75.1
4326;BME280;58429;49.826;10.880;2023-03-19T01:14:40;98349;;;8.05;75.1
4326;BME280;58429;49.826;10.880;2023-03-19T01:15:41;98347;;;8.05;75.1
4326;BME280;58429;49.826;10.880;2023-03-19T01:16:40;98349;;;8.06;74.98
4326;BME280;58429;49.826;10.880;2023-03-19T01:17:40;98351;;;8.03;75.05
4326;BME280;58429;49.826;10.880;2023-03-19T01:18:40;98346;;;8.05;75.44
4326;BME280;58429;49.826;10.880;2023-03-19T01:19:40;98344;;;8.07;75.4
4326;BME280;58429;49.826;10.880;2023-03-19T01:20:40;98341;;;8.05;75.29
4326;BME280;58429;49.826;10.880;2023-03-19T01:21:40;98340;;;8.06;74.98
4326;BME280;58429;49.826;10.880;2023-03-19T01:22:41;98344;;;8.05;74.73
4326;BME280;58429;49.826;10.880;2023-03-19T01:23:40;98352;;;8.07;74.66
4326;BME280;58429;49.826;10.880;2023-03-19T01:24:40;98355;;;8.03;75.07
4326;BME280;58429;49.826;10.880;2023-03-19T01:25:40;98351;;;7.95;75.13
4326;BME280;58429;49.826;10.880;2023-03-19T01:26:40;98356;;;7.91;75.55
4326;BME280;58429;49.826;10.880;2023-03-19T01:27:40;98348;;;7.84;75.91
4326;BME280;58429;49.826;10.880;2023-03-19T01:28:40;98354;;;7.79;76.37
4326;BME280;58429;49.826;10.880;2023-03-19T01:29:40;98352;;;7.73;76.37
4326;BME280;58429;49.826;10.880;2023-03-19T01:30:40;98347;;;7.74;76.19
4326;BME280;58429;49.826;10.880;2023-03-19T01:31:40;98353;;;7.77;76.06
4326;BME280;58429;49.826;10.880;2023-03-19T01:32:40;98350;;;7.79;75.87
4326;BME280;58429;49.826;10.880;2023-03-19T01:33:40;98350;;;7.81;75.85
4326;BME280;58429;49.826;10.880;2023-03-19T01:34:40;98354;;;7.78;75.76
4326;BME280;58429;49.826;10.880;2023-03-19T01:35:40;98353;;;7.79;75.61
4326;BME280;58429;49.826;10.880;2023-03-19T01:36:40;98356;;;7.78;75.4
4326;BME280;58429;49.826;10.880;2023-03-19T01:37:40;98357;;;7.72;75.47
4326;BME280;58429;49.826;10.880;2023-03-19T01:38:40;98357;;;7.69;75.74
4326;BME280;58429;49.826;10.880;2023-03-19T01:39:40;98352;;;7.67;75.83
4326;BME280;58429;49.826;10.880;2023-03-19T01:40:42;98351;;;7.64;75.76
4326;BME280;58429;49.826;10.880;2023-03-19T01:41:40;98357;;;7.62;75.8
4326;BME280;58429;49.826;10.880;2023-03-19T01:42:56;98358;;;7.64;75.74
4326;BME280;58429;49.826;10.880;2023-03-19T01:43:40;98358;;;7.62;75.68
4326;BME280;58429;49.826;10.880;2023-03-19T01:44:40;98360;;;7.61;75.8
4326;BME280;58429;49.826;10.880;2023-03-19T01:45:40;98362;;;7.62;75.8
4326;BME280;58429;49.826;10.880;2023-03-19T01:46:40;98360;;;7.59;75.84
4326;BME280;58429;49.826;10.880;2023-03-19T01:47:40;98366;;;7.62;75.89
4326;BME280;58429;49.826;10.880;2023-03-19T01:48:40;98359;;;7.55;75.8
4326;BME280;58429;49.826;10.880;2023-03-19T01:49:40;98358;;;7.59;75.92
4326;BME280;58429;49.826;10.880;2023-03-19T01:50:40;98363;;;7.52;76.06
4326;BME280;58429;49.826;10.880;2023-03-19T01:51:40;98358;;;7.54;75.97
4326;BME280;58429;49.826;10.880;2023-03-19T01:52:40;98355;;;7.52;75.93
4326;BME280;58429;49.826;10.880;2023-03-19T01:53:40;98353;;;7.57;75.83
4326;BME280;58429;49.826;10.880;2023-03-19T01:54:40;98363;;;7.55;75.84
4326;BME280;58429;49.826;10.880;2023-03-19T01:55:40;98368;;;7.56;75.92
4326;BME280;58429;49.826;10.880;2023-03-19T01:56:45;98369;;;7.46;76.26
4326;BME280;58429;49.826;10.880;2023-03-19T01:57:40;98366;;;7.46;76.17
4326;BME280;58429;49.826;10.880;2023-03-19T01:58:40;98371;;;7.46;76.23
4326;BME280;58429;49.826;10.880;2023-03-19T01:59:40;98369;;;7.4;76.61
4326;BME280;58429;49.826;10.880;2023-03-19T02:00:40;98369;;;7.36;76.81
4326;BME280;58429;49.826;10.880;2023-03-19T02:01:42;98364;;;7.34;77.23
4326;BME280;58429;49.826;10.880;2023-03-19T02:02:40;98364;;;7.33;77.3
4326;BME280;58429;49.826;10.880;2023-03-19T02:03:40;98364;;;7.34;77.12
4326;BME280;58429;49.826;10.880;2023-03-19T02:04:40;98365;;;7.33;77.16
4326;BME280;58429;49.826;10.880;2023-03-19T02:05:40;98364;;;7.33;77.02
4326;BME280;58429;49.826;10.880;2023-03-19T02:06:40;98358;;;7.35;77
4326;BME280;58429;49.826;10.880;2023-03-19T02:07:40;98365;;;7.35;76.87
4326;BME280;58429;49.826;10.880;2023-03-19T02:08:40;98367;;;7.35;76.74
4326;BME280;58429;49.826;10.880;2023-03-19T02:09:40;98369;;;7.38;76.78
4326;BME280;58429;49.826;10.880;2023-03-19T02:10:40;98366;;;7.39;76.83
4326;BME280;58429;49.826;10.880;2023-03-19T02:11:40;98363;;;7.36;76.89
4326;BME280;58429;49.826;10.880;2023-03-19T02:12:40;98363;;;7.35;76.75
4326;BME280;58429;49.826;10.880;2023-03-19T02:13:40;98368;;;7.37;76.64
4326;BME280;58429;49.826;10.880;2023-03-19T02:14:40;98366;;;7.35;76.69
4326;BME280;58429;49.826;10.880;2023-03-19T02:15:40;98368;;;7.36;76.63
4326;BME280;58429;49.826;10.880;2023-03-19T02:16:40;98366;;;7.35;76.78
4326;BME280;58429;49.826;10.880;2023-03-19T02:17:40;98359;;;7.33;77.26
4326;BME280;58429;49.826;10.880;2023-03-19T02:18:40;98366;;;7.32;77.13
4326;BME280;58429;49.826;10.880;2023-03-19T02:19:42;98358;;;7.34;77.31
4326;BME280;58429;49.826;10.880;2023-03-19T02:20:43;98361;;;7.36;77.1
4326;BME280;58429;49.826;10.880;2023-03-19T02:21:40;98360;;;7.36;76.94
4326;BME280;58429;49.826;10.880;2023-03-19T02:22:41;98350;;;7.34;76.84
4326;BME280;58429;49.826;10.880;2023-03-19T02:23:40;98358;;;7.34;76.7
4326;BME280;58429;49.826;10.880;2023-03-19T02:24:40;98354;;;7.34;76.67
4326;BME280;58429;49.826;10.880;2023-03-19T02:25:41;98353;;;7.33;76.82
4326;BME280;58429;49.826;10.880;2023-03-19T02:26:40;98360;;;7.33;76.81
4326;BME280;58429;49.826;10.880;2023-03-19T02:27:40;98356;;;7.35;76.78
4326;BME280;58429;49.826;10.880;2023-03-19T02:28:40;98358;;;7.33;76.78
4326;BME280;58429;49.826;10.880;2023-03-19T02:29:40;98359;;;7.34;76.75
4326;BME280;58429;49.826;10.880;2023-03-19T02:30:40;98357;;;7.34;76.76
4326;BME280;58429;49.826;10.880;2023-03-19T02:31:40;98354;;;7.37;76.79
4326;BME280;58429;49.826;10.880;2023-03-19T02:32:40;98351;;;7.34;76.79
4326;BME280;58429;49.826;10.880;2023-03-19T02:33:40;98347;;;7.34;76.87
4326;BME280;58429;49.826;10.880;2023-03-19T02:34:40;98351;;;7.32;76.81
4326;BME280;58429;49.826;10.880;2023-03-19T02:35:40;98352;;;7.34;76.93
4326;BME280;58429;49.826;10.880;2023-03-19T02:36:40;98355;;;7.33;76.93
4326;BME280;58429;49.826;10.880;2023-03-19T02:37:40;98350;;;7.28;77.2
4326;BME280;58429;49.826;10.880;2023-03-19T02:38:40;98356;;;7.23;77.11
4326;BME280;58429;49.826;10.880;2023-03-19T02:39:44;98352;;;7.24;77.14
4326;BME280;58429;49.826;10.880;2023-03-19T02:40:42;98359;;;7.21;77.16
4326;BME280;58429;49.826;10.880;2023-03-19T02:41:40;98366;;;7.19;77.15
4326;BME280;58429;49.826;10.880;2023-03-19T02:42:40;98358;;;7.15;77.25
4326;BME280;58429;49.826;10.880;2023-03-19T02:43:40;98360;;;7.12;77.25
4326;BME280;58429;49.826;10.880;2023-03-19T02:44:40;98362;;;7.13;77.39
4326;BME280;58429;49.826;10.880;2023-03-19T02:45:40;98355;;;7.09;77.43
4326;BME280;58429;49.826;10.880;2023-03-19T02:46:40;98360;;;7.07;77.76
4326;BME280;58429;49.826;10.880;2023-03-19T02:47:40;98367;;;7.07;77.73
4326;BME280;58429;49.826;10.880;2023-03-19T02:48:40;98360;;;7.06;77.71
4326;BME280;58429;49.826;10.880;2023-03-19T02:49:40;98361;;;7.01;77.73
4326;BME280;58429;49.826;10.880;2023-03-19T02:50:40;98362;;;7;77.78
4326;BME280;58429;49.826;10.880;2023-03-19T02:51:40;98361;;;6.97;77.81
4326;BME280;58429;49.826;10.880;2023-03-19T02:52:40;98362;;;6.97;77.76
4326;BME280;58429;49.826;10.880;2023-03-19T02:53:40;98358;;;6.99;77.66
4326;BME280;58429;49.826;10.880;2023-03-19T02:54:40;98360;;;7.01;77.56
4326;BME280;58429;49.826;10.880;2023-03-19T02:55:40;98363;;;7.04;77.41
4326;BME280;58429;49.826;10.880;2023-03-19T02:56:40;98362;;;7.03;77.29
4326;BME280;58429;49.826;10.880;2023-03-19T02:57:40;98363;;;7.07;77.2
4326;BME280;58429;49.826;10.880;2023-03-19T02:58:40;98369;;;7.03;77.23
4326;BME280;58429;49.826;10.880;2023-03-19T02:59:40;98367;;;7.01;77.31
4326;BME280;58429;49.826;10.880;2023-03-19T03:00:40;98374;;;6.99;77.25
4326;BME280;58429;49.826;10.880;2023-03-19T03:01:40;98375;;;7.01;77.31
4326;BME280;58429;49.826;10.880;2023-03-19T03:02:40;98373;;;7;77.31
4326;BME280;58429;49.826;10.880;2023-03-19T03:03:40;98377;;;7.01;77.25
4326;BME280;58429;49.826;10.880;2023-03-19T03:04:40;98381;;;6.98;77.22
4326;BME280;58429;49.826;10.880;2023-03-19T03:05:40;98380;;;6.99;77.33
4326;BME280;58429;49.826;10.880;2023-03-19T03:06:40;98377;;;6.97;77.52
4326;BME280;58429;49.826;10.880;2023-03-19T03:07:40;98378;;;6.95;77.6
4326;BME280;58429;49.826;10.880;2023-03-19T03:08:40;98377;;;6.92;77.48
4326;BME280;58429;49.826;10.880;2023-03-19T03:09:40;98386;;;6.94;77.49
4326;BME280;58429;49.826;10.880;2023-03-19T03:10:40;98379;;;6.9;77.42
4326;BME280;58429;49.826;10.880;2023-03-19T03:11:40;98379;;;6.89;77.41
4326;BME280;58429;49.826;10.880;2023-03-19T03:12:40;98382;;;6.86;77.43
4326;BME280;58429;49.826;10.880;2023-03-19T03:13:40;98385;;;6.87;77.41
4326;BME280;58429;49.826;10.880;2023-03-19T03:14:40;98382;;;6.88;77.4
4326;BME280;58429;49.826;10.880;2023-03-19T03:15:40;98385;;;6.88;77.28
4326;BME280;58429;49.826;10.880;2023-03-19T03:16:40;98381;;;6.89;77.26
4326;BME280;58429;49.826;10.880;2023-03-19T03:17:40;98389;;;6.86;77.21
4326;BME280;58429;49.826;10.880;2023-03-19T03:18:40;98387;;;6.88;77.11
4326;BME280;58429;49.826;10.880;2023-03-19T03:19:40;98387;;;6.84;77.25
4326;BME280;58429;49.826;10.880;2023-03-19T03:20:40;98392;;;6.84;77.33
4326;BME280;58429;49.826;10.880;2023-03-19T03:21:40;98384;;;6.83;77.58
4326;BME280;58429;49.826;10.880;2023-03-19T03:22:40;98395;;;6.82;77.77
4326;BME280;58429;49.826;10.880;2023-03-19T03:23:40;98396;;;6.78;77.74
4326;BME280;58429;49.826;10.880;2023-03-19T03:24:40;98395;;;6.8;77.92
4326;BME280;58429;49.826;10.880;2023-03-19T03:25:40;98396;;;6.72;78.42
4326;BME280;58429;49.826;10.880;2023-03-19T03:26:40;98396;;;6.7;78.62
4326;BME280;58429;49.826;10.880;2023-03-19T03:27:40;98396;;;6.6;78.57
4326;BME280;58429;49.826;10.880;2023-03-19T03:28:40;98405;;;6.64;78.43
4326;BME280;58429;49.826;10.880;2023-03-19T03:29:40;98398;;;6.64;78.7
4326;BME280;58429;49.826;10.880;2023-03-19T03:30:40;98400;;;6.61;78.57
4326;BME280;58429;49.826;10.880;2023-03-19T03:31:40;98401;;;6.61;78.55
4326;BME280;58429;49.826;10.880;2023-03-19T03:32:40;98403;;;6.58;78.5
4326;BME280;58429;49.826;10.880;2023-03-19T03:33:40;98399;;;6.57;78.48
4326;BME280;58429;49.826;10.880;2023-03-19T03:34:40;98400;;;6.58;78.53
4326;BME280;58429;49.826;10.880;2023-03-19T03:35:40;98399;;;6.61;78.41
4326;BME280;58429;49.826;10.880;2023-03-19T03:36:40;98406;;;6.59;78.43
4326;BME280;58429;49.826;10.880;2023-03-19T03:37:40;98404;;;6.58;78.39
4326;BME280;58429;49.826;10.880;2023-03-19T03:38:40;98402;;;6.6;78.35
4326;BME280;58429;49.826;10.880;2023-03-19T03:39:40;98402;;;6.62;78.3
4326;BME280;58429;49.826;10.880;2023-03-19T03:40:40;98403;;;6.61;78.23
4326;BME280;58429;49.826;10.880;2023-03-19T03:41:40;98404;;;6.61;78.28
4326;BME280;58429;49.826;10.880;2023-03-19T03:42:40;98406;;;6.61;78.16
4326;BME280;58429;49.826;10.880;2023-03-19T03:43:40;98401;;;6.6;78.09
4326;BME280;58429;49.826;10.880;2023-03-19T03:44:40;98403;;;6.61;78.07
4326;BME280;58429;49.826;10.880;2023-03-19T03:45:40;98400;;;6.61;78.17
4326;BME280;58429;49.826;10.880;2023-03-19T03:46:40;98407;;;6.62;78.16
4326;BME280;58429;49.826;10.880;2023-03-19T03:47:40;98407;;;6.6;78.16
4326;BME280;58429;49.826;10.880;2023-03-19T03:48:40;98407;;;6.6;78.16
4326;BME280;58429;49.826;10.880;2023-03-19T03:49:40;98403;;;6.61;78.16
4326;BME280;58429;49.826;10.880;2023-03-19T03:50:40;98405;;;6.64;78.08
4326;BME280;58429;49.826;10.880;2023-03-19T03:51:40;98414;;;6.6;78.2
4326;BME280;58429;49.826;10.880;2023-03-19T03:52:40;98408;;;6.59;78.29
4326;BME280;58429;49.826;10.880;2023-03-19T03:53:40;98409;;;6.57;78.45
4326;BME280;58429;49.826;10.880;2023-03-19T03:54:40;98406;;;6.58;78.53
4326;BME280;58429;49.826;10.880;2023-03-19T03:55:40;98404;;;6.57;78.55
4326;BME280;58429;49.826;10.880;2023-03-19T03:56:40;98403;;;6.58;78.57
4326;BME280;58429;49.826;10.880;2023-03-19T03:57:40;98406;;;6.58;78.43
4326;BME280;58429;49.826;10.880;2023-03-19T03:58:40;98406;;;6.56;78.38
4326;BME280;58429;49.826;10.880;2023-03-19T03:59:40;98408;;;6.61;78.29
4326;BME280;58429;49.826;10.880;2023-03-19T04:00:40;98408;;;6.58;78.19
4326;BME280;58429;49.826;10.880;2023-03-19T04:01:40;98407;;;6.58;78.17
4326;BME280;58429;49.826;10.880;2023-03-19T04:02:40;98408;;;6.59;78.18
4326;BME280;58429;49.826;10.880;2023-03-19T04:03:40;98407;;;6.6;78.09
4326;BME280;58429;49.826;10.880;2023-03-19T04:04:40;98412;;;6.58;78
4326;BME280;58429;49.826;10.880;2023-03-19T04:05:40;98414;;;6.58;77.98
4326;BME280;58429;49.826;10.880;2023-03-19T04:06:40;98412;;;6.58;77.96
4326;BME280;58429;49.826;10.880;2023-03-19T04:07:40;98408;;;6.6;77.99
4326;BME280;58429;49.826;10.880;2023-03-19T04:08:40;98408;;;6.58;78.08
4326;BME280;58429;49.826;10.880;2023-03-19T04:09:40;98415;;;6.57;78.05
4326;BME280;58429;49.826;10.880;2023-03-19T04:10:40;98410;;;6.55;78.11
4326;BME280;58429;49.826;10.880;2023-03-19T04:11:40;98413;;;6.57;78.29
4326;BME280;58429;49.826;10.880;2023-03-19T04:12:40;98409;;;6.58;78.41
4326;BME280;58429;49.826;10.880;2023-03-19T04:13:40;98418;;;6.55;78.38
4326;BME280;58429;49.826;10.880;2023-03-19T04:14:40;98421;;;6.49;78.67
4326;BME280;58429;49.826;10.880;2023-03-19T04:15:40;98423;;;6.48;78.46
4326;BME280;58429;49.826;10.880;2023-03-19T04:16:40;98428;;;6.42;78.46
4326;BME280;58429;49.826;10.880;2023-03-19T04:17:40;98424;;;6.41;78.61
4326;BME280;58429;49.826;10.880;2023-03-19T04:18:40;98428;;;6.38;78.8
4326;BME280;58429;49.826;10.880;2023-03-19T04:19:40;98424;;;6.4;78.92
4326;BME280;58429;49.826;10.880;2023-03-19T04:20:40;98423;;;6.42;78.92
4326;BME280;58429;49.826;10.880;2023-03-19T04:21:40;98422;;;6.43;78.9
4326;BME280;58429;49.826;10.880;2023-03-19T04:22:40;98418;;;6.41;78.9
4326;BME280;58429;49.826;10.880;2023-03-19T04:23:40;98421;;;6.43;78.94
4326;BME280;58429;49.826;10.880;2023-03-19T04:24:40;98422;;;6.41;78.83
4326;BME280;58429;49.826;10.880;2023-03-19T04:25:40;98418;;;6.44;78.66
4326;BME280;58429;49.826;10.880;2023-03-19T04:26:40;98419;;;6.43;78.59
4326;BME280;58429;49.826;10.880;2023-03-19T04:27:40;98419;;;6.44;78.53
4326;BME280;58429;49.826;10.880;2023-03-19T04:28:40;98416;;;6.45;78.43
4326;BME280;58429;49.826;10.880;2023-03-19T04:29:40;98420;;;6.45;78.3
4326;BME280;58429;49.826;10.880;2023-03-19T04:30:40;98417;;;6.46;78.16
4326;BME280;58429;49.826;10.880;2023-03-19T04:31:40;98415;;;6.42;78.14
4326;BME280;58429;49.826;10.880;2023-03-19T04:32:40;98410;;;6.42;78.09
4326;BME280;58429;49.826;10.880;2023-03-19T04:33:40;98421;;;6.37;78.11
4326;BME280;58429;49.826;10.880;2023-03-19T04:34:40;98422;;;6.38;78.16
4326;BME280;58429;49.826;10.880;2023-03-19T04:35:40;98416;;;6.39;78.14
4326;BME280;58429;49.826;10.880;2023-03-19T04:36:40;98423;;;6.41;78.18
4326;BME280;58429;49.826;10.880;2023-03-19T04:37:40;98423;;;6.38;78.58
4326;BME280;58429;49.826;10.880;2023-03-19T04:38:40;98417;;;6.37;78.47
4326;BME280;58429;49.826;10.880;2023-03-19T04:39:40;98419;;;6.36;78.49
4326;BME280;58429;49.826;10.880;2023-03-19T04:40:40;98416;;;6.34;78.46
4326;BME280;58429;49.826;10.880;2023-03-19T04:41:40;98418;;;6.35;78.41
4326;BME280;58429;49.826;10.880;2023-03-19T04:42:40;98420;;;6.32;78.36
4326;BME280;58429;49.826;10.880;2023-03-19T04:43:40;98420;;;6.36;78.38
4326;BME280;58429;49.826;10.880;2023-03-19T04:44:40;98423;;;6.36;78.28
4326;BME280;58429;49.826;10.880;2023-03-19T04:45:40;98421;;;6.36;78.22
4326;BME280;58429;49.826;10.880;2023-03-19T04:46:40;98421;;;6.36;78.15
4326;BME280;58429;49.826;10.880;2023-03-19T04:47:40;98429;;;6.36;78.07
4326;BME280;58429;49.826;10.880;2023-03-19T04:48:40;98426;;;6.34;78.03
4326;BME280;58429;49.826;10.880;2023-03-19T04:49:40;98422;;;6.35;78
4326;BME280;58429;49.826;10.880;2023-03-19T04:50:40;98430;;;6.36;78
4326;BME280;58429;49.826;10.880;2023-03-19T04:51:40;98432;;;6.33;77.98
4326;BME280;58429;49.826;10.880;2023-03-19T04:52:40;98437;;;6.32;78
4326;BME280;58429;49.826;10.880;2023-03-19T04:53:40;98433;;;6.33;77.94
4326;BME280;58429;49.826;10.880;2023-03-19T04:54:40;98440;;;6.32;77.96
4326;BME280;58429;49.826;10.880;2023-03-19T04:55:40;98438;;;6.3;78.04
4326;BME280;58429;49.826;10.880;2023-03-19T04:56:40;98443;;;6.29;78.21
4326;BME280;58429;49.826;10.880;2023-03-19T04:57:40;98443;;;6.26;78.34
4326;BME280;58429;49.826;10.880;2023-03-19T04:58:40;98442;;;6.25;78.5
4326;BME280;58429;49.826;10.880;2023-03-19T04:59:40;98449;;;6.24;78.57
4326;BME280;58429;49.826;10.880;2023-03-19T05:00:40;98450;;;6.23;78.58
4326;BME280;58429;49.826;10.880;2023-03-19T05:01:40;98449;;;6.24;78.58
4326;BME280;58429;49.826;10.880;2023-03-19T05:02:40;98448;;;6.25;78.63
4326;BME280;58429;49.826;10.880;2023-03-19T05:03:41;98450;;;6.23;78.77
4326;BME280;58429;49.826;10.880;2023-03-19T05:04:40;98447;;;6.19;78.79
4326;BME280;58429;49.826;10.880;2023-03-19T05:05:40;98447;;;6.25;78.82
4326;BME280;58429;49.826;10.880;2023-03-19T05:06:40;98445;;;6.26;78.79
4326;BME280;58429;49.826;10.880;2023-03-19T05:07:40;98449;;;6.21;78.84
4326;BME280;58429;49.826;10.880;2023-03-19T05:08:40;98446;;;6.25;78.79
4326;BME280;58429;49.826;10.880;2023-03-19T05:09:40;98447;;;6.24;78.83
4326;BME280;58429;49.826;10.880;2023-03-19T05:10:40;98453;;;6.22;78.97
4326;BME280;58429;49.826;10.880;2023-03-19T05:11:40;98458;;;6.18;79.13
4326;BME280;58429;49.826;10.880;2023-03-19T05:12:40;98455;;;6.21;79.15
4326;BME280;58429;49.826;10.880;2023-03-19T05:13:40;98455;;;6.17;79.28
4326;BME280;58429;49.826;10.880;2023-03-19T05:14:40;98455;;;6.15;79.26
4326;BME280;58429;49.826;10.880;2023-03-19T05:15:40;98452;;;6.17;79.21
4326;BME280;58429;49.826;10.880;2023-03-19T05:16:40;98458;;;6.16;79.23
4326;BME280;58429;49.826;10.880;2023-03-19T05:17:40;98462;;;6.17;79.33
4326;BME280;58429;49.826;10.880;2023-03-19T05:18:40;98453;;;6.19;79.34
4326;BME280;58429;49.826;10.880;2023-03-19T05:19:40;98456;;;6.22;79.26
4326;BME280;58429;49.826;10.880;2023-03-19T05:20:40;98462;;;6.24;79.29
4326;BME280;58429;49.826;10.880;2023-03-19T05:21:40;98466;;;6.22;79.34
4326;BME280;58429;49.826;10.880;2023-03-19T05:22:40;98460;;;6.24;79.33
4326;BME280;58429;49.826;10.880;2023-03-19T05:23:40;98457;;;6.26;79.29
4326;BME280;58429;49.826;10.880;2023-03-19T05:24:40;98459;;;6.28;79.26
4326;BME280;58429;49.826;10.880;2023-03-19T05:25:40;98464;;;6.3;79.33
4326;BME280;58429;49.826;10.880;2023-03-19T05:26:40;98465;;;6.28;79.38
4326;BME280;58429;49.826;10.880;2023-03-19T05:27:40;98470;;;6.25;79.37
4326;BME280;58429;49.826;10.880;2023-03-19T05:28:40;98470;;;6.3;79.33
4326;BME280;58429;49.826;10.880;2023-03-19T05:29:40;98477;;;6.31;79.39
4326;BME280;58429;49.826;10.880;2023-03-19T05:30:40;98482;;;6.26;80.01
4326;BME280;58429;49.826;10.880;2023-03-19T05:31:40;98484;;;6.2;80.09
4326;BME280;58429;49.826;10.880;2023-03-19T05:32:40;98469;;;6.23;80.08
4326;BME280;58429;49.826;10.880;2023-03-19T05:33:40;98471;;;6.24;79.98
4326;BME280;58429;49.826;10.880;2023-03-19T05:34:40;98482;;;6.24;79.89
4326;BME280;58429;49.826;10.880;2023-03-19T05:35:40;98483;;;6.28;79.85
4326;BME280;58429;49.826;10.880;2023-03-19T05:36:40;98482;;;6.29;79.83